Bookmark and Share
Track history (hours):
 

Ikan Bagat

Last reported at 2014-Apr-10 14:33 UTC. Time now 2014-Apr-24 01:53 UTC.
Position N 20°04' W 106°36'.
Warning: this ship's position is 13 days out of date.

Length 229 m; draft 11.7 m.

Type: Cargo ship. MMSI: 354375000.

NotesDate/timePositionNaut miles runAvg speedWind from/ knotsBaromVisibWave heightAir tempDewpointWater temp
2014-Apr-10 14:33N 20°04' W 106°36'  
2014-Apr-07 22:33N 28°05' W 115°54'1110.8
2014-Apr-07 21:32N 28°14' W 116°02'1110.9
2014-Apr-07 20:33N 28°22' W 116°09'12612.6
2014-Apr-07 10:31N 30°03' W 117°35'2412.4
2014-Apr-07 08:33N 30°23' W 117°51'1312.8
2014-Apr-07 07:33N 30°34' W 118°00'1313.1
2014-Apr-07 06:33N 30°44' W 118°10'1313.0
2014-Apr-07 05:33N 30°54' W 118°19'1312.9
2014-Apr-07 04:33N 31°04' W 118°29'1312.8
2014-Apr-07 03:33N 31°14' W 118°38'1312.8
2014-Apr-07 02:33N 31°24' W 118°47'1312.7
2014-Apr-07 01:33N 31°33' W 118°57'1312.6
2014-Apr-07 00:33N 31°43' W 119°07'1312.6
2014-Apr-06 23:33N 31°54' W 119°12'1312.5
2014-Apr-06 22:33N 32°04' W 119°21'1212.3
2014-Apr-06 21:33N 32°14' W 119°30'1212.2
2014-Apr-06 20:33N 32°23' W 119°39'1212.3
2014-Apr-06 19:33N 32°33' W 119°48'2612.3
2014-Apr-06 17:29N 32°54' W 120°06'1212.5
2014-Apr-06 16:33N 33°03' W 120°14'1312.6
2014-Apr-06 15:34N 33°13' W 120°23'7511.9
2014-Apr-06 09:15N 34°15' W 121°14'811.9
2014-Apr-06 08:33N 34°23' W 121°18'2912.2
2014-Apr-06 06:09N 34°49' W 121°35'711.8
2014-Apr-06 05:33N 34°55' W 121°39'1211.9
2014-Apr-06 04:33N 35°06' W 121°45'1212.2
2014-Apr-06 03:33N 35°17' W 121°52'1212.4
2014-Apr-06 02:33N 35°28' W 121°59'1212.0
2014-Apr-06 01:33N 35°39' W 122°05'1212.3
2014-Apr-06 00:33N 35°50' W 122°11'1212.4
2014-Apr-05 23:33N 36°01' W 122°19'1312.5
2014-Apr-05 22:33N 36°12' W 122°26'1312.4
2014-Apr-05 21:33N 36°24' W 122°32'1212.4
2014-Apr-05 20:33N 36°35' W 122°39'1212.3
2014-Apr-05 19:33N 36°46' W 122°46'1412.3
2014-Apr-05 18:26N 36°58' W 122°54'1612.1
2014-Apr-05 17:08N 37°12' W 123°01'912.4
2014-Apr-05 16:22N 37°22' W 123°03'1012.0
2014-Apr-05 15:33N 37°31' W 123°05'1111.0
2014-Apr-05 14:33N 37°39' W 122°55'1211.8
2014-Apr-05 13:33N 37°45' W 122°42'1111.2
2014-Apr-05 12:33N 37°49' W 122°29'7 6.7
2014-Apr-05 11:33N 37°55' W 122°25'2 2.0
2014-Apr-05 10:31N 37°55' W 122°22'0 0.0
2014-Apr-05 09:32N 37°55' W 122°22'0 0.0
2014-Apr-05 08:32N 37°55' W 122°22'0 0.0
2014-Apr-05 07:32N 37°55' W 122°22'0 0.0
2014-Apr-05 06:32N 37°55' W 122°22'0 0.0
2014-Apr-05 05:32N 37°55' W 122°22'0 0.0
2014-Apr-05 04:32N 37°55' W 122°22'0 0.0
2014-Apr-05 03:32N 37°55' W 122°22'0 0.0
2014-Apr-05 02:32N 37°55' W 122°22'0 0.0
2014-Apr-05 01:32N 37°55' W 122°22'0 0.0
2014-Apr-05 00:32N 37°55' W 122°22'0 0.0
2014-Apr-04 23:29N 37°55' W 122°22'0 0.0
2014-Apr-04 22:32N 37°55' W 122°22'0 0.0
2014-Apr-04 21:32N 37°55' W 122°22'0 0.0
2014-Apr-04 20:32N 37°55' W 122°22'0 0.0
2014-Apr-04 19:32N 37°55' W 122°22'0 0.0
2014-Apr-04 18:32N 37°55' W 122°22'0 0.0
2014-Apr-04 17:32N 37°55' W 122°22'0 0.0
2014-Apr-04 16:32N 37°55' W 122°22'0 0.0
2014-Apr-04 15:32N 37°55' W 122°22'0 0.0
2014-Apr-04 14:32N 37°55' W 122°22'0 0.0
2014-Apr-04 13:32N 37°55' W 122°22'0 0.0
2014-Apr-04 12:32N 37°55' W 122°22'0 0.0
2014-Apr-04 11:32N 37°55' W 122°22'0 0.0
2014-Apr-04 10:32N 37°55' W 122°22'0 0.0
2014-Apr-04 09:32N 37°55' W 122°22'0 0.0
2014-Apr-04 08:32N 37°55' W 122°22'0 0.0
2014-Apr-04 07:32N 37°55' W 122°22'0 0.0
2014-Apr-04 06:32N 37°55' W 122°22'0 0.0
2014-Apr-04 05:32N 37°55' W 122°22'0 0.0
2014-Apr-04 04:32N 37°55' W 122°22'0 0.0
2014-Apr-04 03:32N 37°55' W 122°22'0 0.0
2014-Apr-04 02:32N 37°55' W 122°22'0 0.0
2014-Apr-04 01:32N 37°55' W 122°22'0 0.0
2014-Apr-04 00:32N 37°55' W 122°22'0 0.0
2014-Apr-03 23:32N 37°55' W 122°22'0 0.0
2014-Apr-03 22:32N 37°55' W 122°22'0 0.0
2014-Apr-03 21:32N 37°55' W 122°22'0 0.0
2014-Apr-03 20:32N 37°55' W 122°22'0 0.0
2014-Apr-03 19:32N 37°55' W 122°22'0 0.0
2014-Apr-03 18:32N 37°55' W 122°22'0 0.0
2014-Apr-03 17:32N 37°55' W 122°22'0 0.0
2014-Apr-03 16:32N 37°55' W 122°22'0 0.0
2014-Apr-03 15:32N 37°55' W 122°22'0 0.0
2014-Apr-03 14:32N 37°55' W 122°22'0 0.0
2014-Apr-03 13:32N 37°55' W 122°22'0 0.0
2014-Apr-03 12:32N 37°55' W 122°22'0 0.0
2014-Apr-03 11:32N 37°55' W 122°22'0 0.0
2014-Apr-03 10:32N 37°55' W 122°22'0 0.0
2014-Apr-03 09:32N 37°55' W 122°22'0 0.0
2014-Apr-03 08:32N 37°55' W 122°22'0 0.0
2014-Apr-03 07:32N 37°55' W 122°22'0 0.0
2014-Apr-03 06:32N 37°55' W 122°22'0 0.0
2014-Apr-03 05:32N 37°55' W 122°22'0 0.0
2014-Apr-03 04:32N 37°55' W 122°22'0 0.0
2014-Apr-03 03:32N 37°55' W 122°22'0 0.0
2014-Apr-03 02:32N 37°55' W 122°22'0 0.0
2014-Apr-03 01:32N 37°55' W 122°22'0 0.0
2014-Apr-03 00:32N 37°55' W 122°22'0 0.0
2014-Apr-02 23:32N 37°55' W 122°22'0 0.0
2014-Apr-02 22:32N 37°55' W 122°22'0 0.0
2014-Apr-02 21:32N 37°55' W 122°22'0 0.0
2014-Apr-02 20:32N 37°55' W 122°22'0 0.0
2014-Apr-02 19:32N 37°55' W 122°22'0 0.0
2014-Apr-02 18:33N 37°55' W 122°22'1 1.1
2014-Apr-02 17:33N 37°54' W 122°23'3 3.3
2014-Apr-02 16:33N 37°51' W 122°25'4 4.4
2014-Apr-02 15:33N 37°48' W 122°21'0 0.1
2014-Apr-02 14:33N 37°48' W 122°21'0 0.0
2014-Apr-02 13:33N 37°48' W 122°21'0 0.0
2014-Apr-02 12:33N 37°48' W 122°21'0 0.0
2014-Apr-02 11:33N 37°48' W 122°21'0 0.0
2014-Apr-02 10:33N 37°48' W 122°21'0 0.1
2014-Apr-02 09:33N 37°48' W 122°21'0 0.2
2014-Apr-02 08:33N 37°48' W 122°21'0 0.0
2014-Apr-02 07:33N 37°48' W 122°21'0 0.0
2014-Apr-02 06:33N 37°48' W 122°21'0 0.0
2014-Apr-02 05:33N 37°48' W 122°21'0 0.0
2014-Apr-02 04:33N 37°48' W 122°21'0 0.3
2014-Apr-02 03:33N 37°48' W 122°21'0 0.1
2014-Apr-02 02:33N 37°48' W 122°21'0 0.0
2014-Apr-02 01:33N 37°48' W 122°21'0 0.0
2014-Apr-02 00:33N 37°48' W 122°21'0 0.0
2014-Apr-01 23:33N 37°48' W 122°21'0 0.0
2014-Apr-01 22:33N 37°48' W 122°21'0 0.2
2014-Apr-01 21:33N 37°48' W 122°21'0 0.1
2014-Apr-01 20:33N 37°48' W 122°21'0 0.0
2014-Apr-01 19:33N 37°48' W 122°21'0 0.0
2014-Apr-01 18:33N 37°48' W 122°21'0 0.0
2014-Apr-01 17:33N 37°48' W 122°21'0 0.0
2014-Apr-01 16:33N 37°48' W 122°21'0 0.2
2014-Apr-01 15:33N 37°48' W 122°21'0 0.0
2014-Apr-01 14:33N 37°48' W 122°21'0 0.0
2014-Apr-01 13:33N 37°48' W 122°21'0 0.0
2014-Apr-01 12:33N 37°48' W 122°21'0 0.0
2014-Apr-01 11:33N 37°48' W 122°21'0 0.0
2014-Apr-01 10:33N 37°48' W 122°21'0 0.0
2014-Apr-01 09:33N 37°48' W 122°21'0 0.2
2014-Apr-01 08:33N 37°47' W 122°21'0 0.1
2014-Apr-01 07:33N 37°47' W 122°21'0 0.0
2014-Apr-01 06:33N 37°47' W 122°21'0 0.0
2014-Apr-01 05:27N 37°47' W 122°21'1 0.6
2014-Apr-01 04:33N 37°48' W 122°22'1110.7
2014-Apr-01 03:33N 37°58' W 122°27'1211.8
2014-Apr-01 02:33N 38°04' W 122°14'10 9.1
2014-Apr-01 01:29N 38°04' W 122°01'8 8.3
2014-Apr-01 00:33N 38°02' W 121°52'6 6.2
2014-Mar-31 23:32N 38°02' W 121°44'  

Dump ship's entire track history

sailing weather and tide predictions

Ikan Bagat — 3EYX8 — position and weather